< < Back
Terminal Aerodrome Forecast


Current Version              Previous Versions:   1  2  3  4  5  6  7  8  9  

Terminal Aerodrome Forecast

379
FTUS42 KTAE 241120
TAFTLH
TAF
KTLH 241120Z 2412/2512 08005KT P6SM BKN004
     FM241500 07007KT P6SM SCT250
     FM250100 VRB04KT P6SM SCT250=

Latest METAR

517
SAUS80 KWBC 241600
MTRTLH
METAR KTLH 241553Z 09007KT 10SM SCT028 BKN250 32/24 A3019 RMK AO2 SLP223
T03220239 $


USA.gov is the U.S. government's official web portal to all federal, state and local government web resources and services.